sensor_id;sensor_type;location;lat;lon;timestamp;P1;durP1;ratioP1;P2;durP2;ratioP2
58661;SDS011;44432;49.786;22.760;2022-10-16T00:01:18;25.70;;;20.00;;
58661;SDS011;44432;49.786;22.760;2022-10-16T00:03:50;27.50;;;19.60;;
58661;SDS011;44432;49.786;22.760;2022-10-16T00:06:21;27.10;;;19.10;;
58661;SDS011;44432;49.786;22.760;2022-10-16T00:08:52;25.90;;;19.50;;
58661;SDS011;44432;49.786;22.760;2022-10-16T00:11:24;25.60;;;19.40;;
58661;SDS011;44432;49.786;22.760;2022-10-16T00:13:56;29.70;;;20.20;;
58661;SDS011;44432;49.786;22.760;2022-10-16T00:16:28;26.40;;;19.20;;
58661;SDS011;44432;49.786;22.760;2022-10-16T00:18:59;26.50;;;19.60;;
58661;SDS011;44432;49.786;22.760;2022-10-16T00:21:31;30.10;;;19.10;;
58661;SDS011;44432;49.786;22.760;2022-10-16T00:24:03;28.80;;;20.30;;
58661;SDS011;44432;49.786;22.760;2022-10-16T00:26:36;25.20;;;18.70;;
58661;SDS011;44432;49.786;22.760;2022-10-16T00:29:08;30.90;;;20.00;;
58661;SDS011;44432;49.786;22.760;2022-10-16T00:31:39;24.20;;;18.20;;
58661;SDS011;44432;49.786;22.760;2022-10-16T00:34:09;34.60;;;19.30;;
58661;SDS011;44432;49.786;22.760;2022-10-16T00:36:40;26.10;;;19.10;;
58661;SDS011;44432;49.786;22.760;2022-10-16T00:39:10;29.80;;;18.50;;
58661;SDS011;44432;49.786;22.760;2022-10-16T00:41:41;25.80;;;18.40;;
58661;SDS011;44432;49.786;22.760;2022-10-16T00:47:15;25.90;;;19.00;;
58661;SDS011;44432;49.786;22.760;2022-10-16T00:49:51;25.80;;;18.60;;
58661;SDS011;44432;49.786;22.760;2022-10-16T00:52:25;24.90;;;18.60;;
58661;SDS011;44432;49.786;22.760;2022-10-16T00:54:56;25.70;;;17.80;;
58661;SDS011;44432;49.786;22.760;2022-10-16T00:57:28;30.10;;;18.00;;
58661;SDS011;44432;49.786;22.760;2022-10-16T00:59:59;21.50;;;17.60;;
58661;SDS011;44432;49.786;22.760;2022-10-16T01:02:31;24.20;;;16.60;;
58661;SDS011;44432;49.786;22.760;2022-10-16T01:05:02;21.70;;;16.60;;
58661;SDS011;44432;49.786;22.760;2022-10-16T01:07:36;27.10;;;17.60;;
58661;SDS011;44432;49.786;22.760;2022-10-16T01:10:20;27.60;;;18.60;;
58661;SDS011;44432;49.786;22.760;2022-10-16T01:12:57;25.00;;;16.70;;
58661;SDS011;44432;49.786;22.760;2022-10-16T01:15:34;23.70;;;17.80;;
58661;SDS011;44432;49.786;22.760;2022-10-16T01:18:11;23.50;;;17.60;;
58661;SDS011;44432;49.786;22.760;2022-10-16T01:20:47;24.10;;;16.80;;
58661;SDS011;44432;49.786;22.760;2022-10-16T01:23:27;30.20;;;18.40;;
58661;SDS011;44432;49.786;22.760;2022-10-16T01:26:11;22.10;;;16.90;;
58661;SDS011;44432;49.786;22.760;2022-10-16T01:28:54;24.70;;;17.00;;
58661;SDS011;44432;49.786;22.760;2022-10-16T01:31:29;22.40;;;16.90;;
58661;SDS011;44432;49.786;22.760;2022-10-16T01:34:05;25.30;;;18.30;;
58661;SDS011;44432;49.786;22.760;2022-10-16T01:36:43;22.90;;;17.70;;
58661;SDS011;44432;49.786;22.760;2022-10-16T01:39:18;32.00;;;20.40;;
58661;SDS011;44432;49.786;22.760;2022-10-16T01:41:54;27.20;;;19.90;;
58661;SDS011;44432;49.786;22.760;2022-10-16T01:44:29;26.60;;;19.50;;
58661;SDS011;44432;49.786;22.760;2022-10-16T01:47:03;29.50;;;19.80;;
58661;SDS011;44432;49.786;22.760;2022-10-16T01:49:36;27.20;;;19.70;;
58661;SDS011;44432;49.786;22.760;2022-10-16T01:52:10;29.60;;;19.70;;
58661;SDS011;44432;49.786;22.760;2022-10-16T01:54:46;27.50;;;19.30;;
58661;SDS011;44432;49.786;22.760;2022-10-16T01:57:21;29.20;;;21.30;;
58661;SDS011;44432;49.786;22.760;2022-10-16T01:59:56;27.40;;;20.00;;
58661;SDS011;44432;49.786;22.760;2022-10-16T02:02:31;26.00;;;19.20;;
58661;SDS011;44432;49.786;22.760;2022-10-16T02:05:03;30.60;;;20.20;;
58661;SDS011;44432;49.786;22.760;2022-10-16T02:07:40;30.10;;;21.50;;
58661;SDS011;44432;49.786;22.760;2022-10-16T02:10:10;29.30;;;20.50;;
58661;SDS011;44432;49.786;22.760;2022-10-16T02:12:42;25.70;;;19.10;;
58661;SDS011;44432;49.786;22.760;2022-10-16T02:15:18;24.90;;;19.40;;
58661;SDS011;44432;49.786;22.760;2022-10-16T02:17:49;24.70;;;17.70;;
58661;SDS011;44432;49.786;22.760;2022-10-16T02:20:19;25.70;;;19.70;;
58661;SDS011;44432;49.786;22.760;2022-10-16T02:22:54;26.20;;;18.10;;
58661;SDS011;44432;49.786;22.760;2022-10-16T02:25:28;30.50;;;20.00;;
58661;SDS011;44432;49.786;22.760;2022-10-16T02:28:02;29.80;;;19.70;;
58661;SDS011;44432;49.786;22.760;2022-10-16T02:30:39;24.70;;;19.30;;
58661;SDS011;44432;49.786;22.760;2022-10-16T02:33:14;30.50;;;19.00;;
58661;SDS011;44432;49.786;22.760;2022-10-16T02:35:46;25.60;;;19.90;;
58661;SDS011;44432;49.786;22.760;2022-10-16T02:40:49;28.40;;;20.00;;
58661;SDS011;44432;49.786;22.760;2022-10-16T02:43:20;24.50;;;19.00;;
58661;SDS011;44432;49.786;22.760;2022-10-16T02:45:51;29.80;;;18.90;;
58661;SDS011;44432;49.786;22.760;2022-10-16T02:48:21;28.20;;;19.30;;
58661;SDS011;44432;49.786;22.760;2022-10-16T02:50:52;27.60;;;18.20;;
58661;SDS011;44432;49.786;22.760;2022-10-16T02:53:22;25.30;;;19.30;;
58661;SDS011;44432;49.786;22.760;2022-10-16T02:55:53;28.00;;;18.20;;
58661;SDS011;44432;49.786;22.760;2022-10-16T02:58:23;28.00;;;18.40;;
58661;SDS011;44432;49.786;22.760;2022-10-16T03:00:54;29.50;;;19.40;;
58661;SDS011;44432;49.786;22.760;2022-10-16T03:03:24;27.60;;;20.20;;
58661;SDS011;44432;49.786;22.760;2022-10-16T03:05:55;27.60;;;20.10;;
58661;SDS011;44432;49.786;22.760;2022-10-16T03:08:25;28.50;;;19.20;;
58661;SDS011;44432;49.786;22.760;2022-10-16T03:10:57;25.60;;;19.10;;
58661;SDS011;44432;49.786;22.760;2022-10-16T03:13:27;25.40;;;19.20;;
58661;SDS011;44432;49.786;22.760;2022-10-16T03:15:58;25.60;;;18.00;;
58661;SDS011;44432;49.786;22.760;2022-10-16T03:18:28;26.20;;;19.20;;
58661;SDS011;44432;49.786;22.760;2022-10-16T03:20:59;26.50;;;19.70;;
58661;SDS011;44432;49.786;22.760;2022-10-16T03:23:29;25.90;;;19.40;;
58661;SDS011;44432;49.786;22.760;2022-10-16T03:26:00;24.00;;;18.30;;
58661;SDS011;44432;49.786;22.760;2022-10-16T03:28:30;24.80;;;18.30;;
58661;SDS011;44432;49.786;22.760;2022-10-16T03:31:01;24.30;;;18.70;;
58661;SDS011;44432;49.786;22.760;2022-10-16T03:33:31;27.80;;;19.50;;
58661;SDS011;44432;49.786;22.760;2022-10-16T03:36:02;23.90;;;17.80;;
58661;SDS011;44432;49.786;22.760;2022-10-16T03:38:33;26.80;;;18.40;;
58661;SDS011;44432;49.786;22.760;2022-10-16T03:41:03;25.90;;;17.80;;
58661;SDS011;44432;49.786;22.760;2022-10-16T03:43:35;28.30;;;18.20;;
58661;SDS011;44432;49.786;22.760;2022-10-16T03:46:05;24.00;;;17.90;;
58661;SDS011;44432;49.786;22.760;2022-10-16T03:48:36;27.20;;;17.70;;
58661;SDS011;44432;49.786;22.760;2022-10-16T03:51:07;24.90;;;17.60;;
58661;SDS011;44432;49.786;22.760;2022-10-16T03:53:38;23.00;;;17.80;;
58661;SDS011;44432;49.786;22.760;2022-10-16T03:56:08;21.60;;;16.80;;
58661;SDS011;44432;49.786;22.760;2022-10-16T03:58:39;23.70;;;17.60;;
58661;SDS011;44432;49.786;22.760;2022-10-16T04:01:09;25.10;;;16.70;;
58661;SDS011;44432;49.786;22.760;2022-10-16T04:03:39;24.10;;;17.40;;
58661;SDS011;44432;49.786;22.760;2022-10-16T04:06:10;24.30;;;17.50;;
58661;SDS011;44432;49.786;22.760;2022-10-16T04:08:43;25.30;;;18.00;;
58661;SDS011;44432;49.786;22.760;2022-10-16T04:11:13;25.70;;;19.50;;
58661;SDS011;44432;49.786;22.760;2022-10-16T04:13:44;25.50;;;18.20;;
58661;SDS011;44432;49.786;22.760;2022-10-16T04:16:14;23.30;;;17.80;;
58661;SDS011;44432;49.786;22.760;2022-10-16T04:18:45;27.50;;;19.40;;
58661;SDS011;44432;49.786;22.760;2022-10-16T04:21:15;27.40;;;19.20;;
58661;SDS011;44432;49.786;22.760;2022-10-16T04:23:46;24.10;;;18.10;;
58661;SDS011;44432;49.786;22.760;2022-10-16T04:26:16;27.80;;;18.40;;
58661;SDS011;44432;49.786;22.760;2022-10-16T04:28:47;25.50;;;18.70;;
58661;SDS011;44432;49.786;22.760;2022-10-16T04:31:18;28.30;;;19.60;;
58661;SDS011;44432;49.786;22.760;2022-10-16T04:33:48;25.30;;;18.10;;
58661;SDS011;44432;49.786;22.760;2022-10-16T04:36:19;25.70;;;18.10;;
58661;SDS011;44432;49.786;22.760;2022-10-16T04:38:50;27.30;;;19.40;;
58661;SDS011;44432;49.786;22.760;2022-10-16T04:41:20;27.10;;;18.80;;
58661;SDS011;44432;49.786;22.760;2022-10-16T04:43:51;24.30;;;17.60;;
58661;SDS011;44432;49.786;22.760;2022-10-16T04:46:21;24.10;;;18.20;;
58661;SDS011;44432;49.786;22.760;2022-10-16T04:48:52;22.50;;;17.10;;
58661;SDS011;44432;49.786;22.760;2022-10-16T04:51:22;24.60;;;17.70;;
58661;SDS011;44432;49.786;22.760;2022-10-16T04:53:54;24.50;;;18.80;;
58661;SDS011;44432;49.786;22.760;2022-10-16T04:56:24;23.90;;;16.40;;
58661;SDS011;44432;49.786;22.760;2022-10-16T04:58:55;25.00;;;17.80;;
58661;SDS011;44432;49.786;22.760;2022-10-16T05:01:25;23.20;;;16.40;;
58661;SDS011;44432;49.786;22.760;2022-10-16T05:03:56;25.00;;;16.40;;
58661;SDS011;44432;49.786;22.760;2022-10-16T05:06:26;23.80;;;16.50;;
58661;SDS011;44432;49.786;22.760;2022-10-16T05:08:57;23.70;;;15.70;;
58661;SDS011;44432;49.786;22.760;2022-10-16T05:11:27;22.20;;;16.60;;
58661;SDS011;44432;49.786;22.760;2022-10-16T05:13:58;25.10;;;17.60;;
58661;SDS011;44432;49.786;22.760;2022-10-16T05:16:29;24.50;;;18.20;;
58661;SDS011;44432;49.786;22.760;2022-10-16T05:18:59;23.70;;;16.90;;
58661;SDS011;44432;49.786;22.760;2022-10-16T05:21:30;23.90;;;17.90;;
58661;SDS011;44432;49.786;22.760;2022-10-16T05:24:00;24.90;;;16.80;;
58661;SDS011;44432;49.786;22.760;2022-10-16T05:26:31;27.30;;;17.50;;
58661;SDS011;44432;49.786;22.760;2022-10-16T05:29:02;23.50;;;17.60;;
58661;SDS011;44432;49.786;22.760;2022-10-16T05:31:32;24.60;;;17.40;;
58661;SDS011;44432;49.786;22.760;2022-10-16T05:34:03;23.90;;;17.30;;
58661;SDS011;44432;49.786;22.760;2022-10-16T05:36:33;26.90;;;18.40;;
58661;SDS011;44432;49.786;22.760;2022-10-16T05:39:04;27.00;;;18.40;;
58661;SDS011;44432;49.786;22.760;2022-10-16T05:41:34;25.60;;;19.30;;
58661;SDS011;44432;49.786;22.760;2022-10-16T05:44:05;23.00;;;18.30;;
58661;SDS011;44432;49.786;22.760;2022-10-16T05:46:36;30.30;;;19.50;;
58661;SDS011;44432;49.786;22.760;2022-10-16T05:49:06;25.10;;;19.10;;
58661;SDS011;44432;49.786;22.760;2022-10-16T05:51:37;31.30;;;18.70;;
58661;SDS011;44432;49.786;22.760;2022-10-16T05:54:07;26.00;;;19.50;;
58661;SDS011;44432;49.786;22.760;2022-10-16T05:56:38;27.70;;;19.30;;
58661;SDS011;44432;49.786;22.760;2022-10-16T05:59:08;26.40;;;19.50;;
58661;SDS011;44432;49.786;22.760;2022-10-16T06:01:39;27.10;;;20.80;;
58661;SDS011;44432;49.786;22.760;2022-10-16T06:04:09;29.00;;;20.40;;
58661;SDS011;44432;49.786;22.760;2022-10-16T06:06:40;33.00;;;21.40;;
58661;SDS011;44432;49.786;22.760;2022-10-16T06:09:10;28.00;;;19.50;;
58661;SDS011;44432;49.786;22.760;2022-10-16T06:11:41;26.00;;;19.60;;
58661;SDS011;44432;49.786;22.760;2022-10-16T06:14:11;27.90;;;20.00;;
58661;SDS011;44432;49.786;22.760;2022-10-16T06:16:42;30.90;;;19.30;;
58661;SDS011;44432;49.786;22.760;2022-10-16T06:19:12;28.00;;;18.90;;
58661;SDS011;44432;49.786;22.760;2022-10-16T06:21:43;24.00;;;18.20;;
58661;SDS011;44432;49.786;22.760;2022-10-16T06:24:14;23.40;;;17.40;;
58661;SDS011;44432;49.786;22.760;2022-10-16T06:26:45;24.80;;;16.60;;
58661;SDS011;44432;49.786;22.760;2022-10-16T06:29:15;21.80;;;16.80;;
58661;SDS011;44432;49.786;22.760;2022-10-16T06:31:46;26.90;;;18.60;;
58661;SDS011;44432;49.786;22.760;2022-10-16T06:34:16;21.50;;;17.30;;
58661;SDS011;44432;49.786;22.760;2022-10-16T06:36:47;28.60;;;17.80;;
58661;SDS011;44432;49.786;22.760;2022-10-16T06:39:17;25.10;;;15.90;;
58661;SDS011;44432;49.786;22.760;2022-10-16T06:41:48;26.20;;;18.30;;
58661;SDS011;44432;49.786;22.760;2022-10-16T06:44:18;25.50;;;20.50;;
58661;SDS011;44432;49.786;22.760;2022-10-16T06:46:49;23.70;;;16.40;;
58661;SDS011;44432;49.786;22.760;2022-10-16T06:49:19;27.70;;;22.10;;
58661;SDS011;44432;49.786;22.760;2022-10-16T06:51:50;38.60;;;26.80;;
58661;SDS011;44432;49.786;22.760;2022-10-16T06:54:21;26.40;;;17.80;;
58661;SDS011;44432;49.786;22.760;2022-10-16T06:56:52;21.90;;;17.70;;
58661;SDS011;44432;49.786;22.760;2022-10-16T06:59:23;21.90;;;17.50;;
58661;SDS011;44432;49.786;22.760;2022-10-16T07:01:54;20.10;;;15.40;;
58661;SDS011;44432;49.786;22.760;2022-10-16T07:04:24;16.70;;;14.20;;
58661;SDS011;44432;49.786;22.760;2022-10-16T07:06:55;16.00;;;13.40;;
58661;SDS011;44432;49.786;22.760;2022-10-16T07:09:25;17.90;;;12.80;;
58661;SDS011;44432;49.786;22.760;2022-10-16T07:11:56;17.50;;;11.40;;
58661;SDS011;44432;49.786;22.760;2022-10-16T07:14:26;16.40;;;11.80;;
58661;SDS011;44432;49.786;22.760;2022-10-16T07:16:57;13.20;;;10.30;;
58661;SDS011;44432;49.786;22.760;2022-10-16T07:19:28;18.30;;;13.70;;
58661;SDS011;44432;49.786;22.760;2022-10-16T07:21:58;21.40;;;12.60;;
58661;SDS011;44432;49.786;22.760;2022-10-16T07:24:29;13.40;;;8.80;;
58661;SDS011;44432;49.786;22.760;2022-10-16T07:26:59;11.50;;;7.70;;
58661;SDS011;44432;49.786;22.760;2022-10-16T07:29:31;13.40;;;7.80;;
58661;SDS011;44432;49.786;22.760;2022-10-16T07:32:02;14.50;;;7.80;;
58661;SDS011;44432;49.786;22.760;2022-10-16T07:34:33;12.90;;;5.90;;
58661;SDS011;44432;49.786;22.760;2022-10-16T07:37:03;9.60;;;5.90;;
58661;SDS011;44432;49.786;22.760;2022-10-16T07:39:34;7.40;;;5.10;;
58661;SDS011;44432;49.786;22.760;2022-10-16T07:42:04;8.00;;;4.40;;
58661;SDS011;44432;49.786;22.760;2022-10-16T07:44:35;6.60;;;4.10;;
58661;SDS011;44432;49.786;22.760;2022-10-16T07:47:05;7.20;;;4.90;;
58661;SDS011;44432;49.786;22.760;2022-10-16T07:49:37;15.40;;;5.70;;
58661;SDS011;44432;49.786;22.760;2022-10-16T07:52:07;8.00;;;5.40;;
58661;SDS011;44432;49.786;22.760;2022-10-16T07:54:37;10.60;;;4.40;;
58661;SDS011;44432;49.786;22.760;2022-10-16T07:57:08;7.50;;;4.60;;
58661;SDS011;44432;49.786;22.760;2022-10-16T07:59:39;7.50;;;5.30;;
58661;SDS011;44432;49.786;22.760;2022-10-16T08:02:09;8.40;;;4.50;;
58661;SDS011;44432;49.786;22.760;2022-10-16T08:04:40;9.10;;;5.50;;
58661;SDS011;44432;49.786;22.760;2022-10-16T08:07:10;9.30;;;5.50;;
58661;SDS011;44432;49.786;22.760;2022-10-16T08:09:41;10.50;;;4.90;;
58661;SDS011;44432;49.786;22.760;2022-10-16T08:12:11;9.50;;;5.20;;
58661;SDS011;44432;49.786;22.760;2022-10-16T08:14:42;9.00;;;5.10;;
58661;SDS011;44432;49.786;22.760;2022-10-16T08:17:14;9.50;;;4.70;;
58661;SDS011;44432;49.786;22.760;2022-10-16T08:19:45;8.50;;;4.20;;
58661;SDS011;44432;49.786;22.760;2022-10-16T08:22:16;8.10;;;4.40;;
58661;SDS011;44432;49.786;22.760;2022-10-16T08:24:47;7.40;;;4.40;;
58661;SDS011;44432;49.786;22.760;2022-10-16T08:27:17;6.30;;;3.70;;
58661;SDS011;44432;49.786;22.760;2022-10-16T08:29:49;6.20;;;4.00;;
58661;SDS011;44432;49.786;22.760;2022-10-16T08:32:19;6.50;;;3.90;;
58661;SDS011;44432;49.786;22.760;2022-10-16T08:34:50;6.10;;;4.10;;
58661;SDS011;44432;49.786;22.760;2022-10-16T08:37:20;6.60;;;3.80;;
58661;SDS011;44432;49.786;22.760;2022-10-16T08:39:51;7.40;;;4.50;;
58661;SDS011;44432;49.786;22.760;2022-10-16T08:42:25;5.50;;;3.40;;
58661;SDS011;44432;49.786;22.760;2022-10-16T08:45:23;6.70;;;3.70;;
58661;SDS011;44432;49.786;22.760;2022-10-16T08:48:11;10.40;;;4.10;;
58661;SDS011;44432;49.786;22.760;2022-10-16T08:50:47;6.00;;;3.70;;
58661;SDS011;44432;49.786;22.760;2022-10-16T08:53:20;8.90;;;4.00;;
58661;SDS011;44432;49.786;22.760;2022-10-16T08:55:56;7.30;;;3.90;;
58661;SDS011;44432;49.786;22.760;2022-10-16T08:58:27;8.30;;;4.40;;
58661;SDS011;44432;49.786;22.760;2022-10-16T09:01:00;7.70;;;4.70;;
58661;SDS011;44432;49.786;22.760;2022-10-16T09:03:37;9.30;;;5.00;;
58661;SDS011;44432;49.786;22.760;2022-10-16T09:06:27;7.50;;;4.30;;
58661;SDS011;44432;49.786;22.760;2022-10-16T09:09:07;8.40;;;3.80;;
58661;SDS011;44432;49.786;22.760;2022-10-16T09:11:57;10.30;;;3.90;;
58661;SDS011;44432;49.786;22.760;2022-10-16T09:14:37;6.40;;;3.60;;
58661;SDS011;44432;49.786;22.760;2022-10-16T09:17:24;5.50;;;3.70;;
58661;SDS011;44432;49.786;22.760;2022-10-16T09:20:13;8.40;;;3.60;;
58661;SDS011;44432;49.786;22.760;2022-10-16T09:22:52;7.00;;;3.40;;
58661;SDS011;44432;49.786;22.760;2022-10-16T09:25:28;8.40;;;3.60;;
58661;SDS011;44432;49.786;22.760;2022-10-16T09:28:00;8.80;;;4.10;;
58661;SDS011;44432;49.786;22.760;2022-10-16T09:30:30;6.50;;;4.10;;
58661;SDS011;44432;49.786;22.760;2022-10-16T09:33:01;8.30;;;3.60;;
58661;SDS011;44432;49.786;22.760;2022-10-16T09:35:33;6.90;;;3.80;;
58661;SDS011;44432;49.786;22.760;2022-10-16T09:38:07;6.10;;;3.80;;
58661;SDS011;44432;49.786;22.760;2022-10-16T09:40:49;6.10;;;3.70;;
58661;SDS011;44432;49.786;22.760;2022-10-16T09:43:21;7.20;;;3.30;;
58661;SDS011;44432;49.786;22.760;2022-10-16T09:45:56;7.20;;;3.60;;
58661;SDS011;44432;49.786;22.760;2022-10-16T09:48:30;7.40;;;3.70;;
58661;SDS011;44432;49.786;22.760;2022-10-16T09:51:05;5.30;;;3.40;;
58661;SDS011;44432;49.786;22.760;2022-10-16T09:53:47;6.40;;;3.80;;
58661;SDS011;44432;49.786;22.760;2022-10-16T09:56:23;8.10;;;4.00;;
58661;SDS011;44432;49.786;22.760;2022-10-16T09:58:55;6.10;;;3.70;;
58661;SDS011;44432;49.786;22.760;2022-10-16T10:01:28;7.50;;;3.60;;
58661;SDS011;44432;49.786;22.760;2022-10-16T10:04:05;4.90;;;3.50;;
58661;SDS011;44432;49.786;22.760;2022-10-16T10:06:40;5.50;;;3.50;;
58661;SDS011;44432;49.786;22.760;2022-10-16T10:09:17;5.80;;;3.90;;
58661;SDS011;44432;49.786;22.760;2022-10-16T10:11:51;7.80;;;3.70;;
58661;SDS011;44432;49.786;22.760;2022-10-16T10:14:30;7.90;;;3.50;;
58661;SDS011;44432;49.786;22.760;2022-10-16T10:17:09;10.10;;;3.60;;
58661;SDS011;44432;49.786;22.760;2022-10-16T10:19:42;5.80;;;3.30;;
58661;SDS011;44432;49.786;22.760;2022-10-16T10:22:24;9.00;;;4.40;;
58661;SDS011;44432;49.786;22.760;2022-10-16T10:25:07;10.50;;;5.20;;
58661;SDS011;44432;49.786;22.760;2022-10-16T10:27:51;7.30;;;3.90;;
58661;SDS011;44432;49.786;22.760;2022-10-16T10:30:40;5.60;;;3.00;;
58661;SDS011;44432;49.786;22.760;2022-10-16T10:33:21;6.30;;;3.40;;
58661;SDS011;44432;49.786;22.760;2022-10-16T10:35:58;6.80;;;3.50;;
58661;SDS011;44432;49.786;22.760;2022-10-16T10:38:39;6.20;;;3.20;;
58661;SDS011;44432;49.786;22.760;2022-10-16T10:41:24;5.90;;;3.70;;
58661;SDS011;44432;49.786;22.760;2022-10-16T10:44:07;6.40;;;3.40;;
58661;SDS011;44432;49.786;22.760;2022-10-16T10:46:48;7.00;;;3.50;;
58661;SDS011;44432;49.786;22.760;2022-10-16T10:49:34;7.50;;;3.80;;
58661;SDS011;44432;49.786;22.760;2022-10-16T10:52:19;8.40;;;4.70;;
58661;SDS011;44432;49.786;22.760;2022-10-16T10:55:13;7.70;;;3.30;;
58661;SDS011;44432;49.786;22.760;2022-10-16T10:57:54;8.10;;;4.80;;
58661;SDS011;44432;49.786;22.760;2022-10-16T11:00:49;8.00;;;4.50;;
58661;SDS011;44432;49.786;22.760;2022-10-16T11:03:31;5.70;;;3.80;;
58661;SDS011;44432;49.786;22.760;2022-10-16T11:06:12;10.80;;;4.30;;
58661;SDS011;44432;49.786;22.760;2022-10-16T11:08:47;9.70;;;4.60;;
58661;SDS011;44432;49.786;22.760;2022-10-16T11:11:23;6.90;;;4.50;;
58661;SDS011;44432;49.786;22.760;2022-10-16T11:13:59;7.60;;;4.40;;
58661;SDS011;44432;49.786;22.760;2022-10-16T11:16:35;5.80;;;4.00;;
58661;SDS011;44432;49.786;22.760;2022-10-16T11:19:11;7.20;;;3.30;;
58661;SDS011;44432;49.786;22.760;2022-10-16T11:21:51;7.40;;;4.20;;
58661;SDS011;44432;49.786;22.760;2022-10-16T11:24:30;6.00;;;4.00;;
58661;SDS011;44432;49.786;22.760;2022-10-16T11:27:11;7.40;;;3.80;;
58661;SDS011;44432;49.786;22.760;2022-10-16T11:29:46;7.40;;;4.10;;
58661;SDS011;44432;49.786;22.760;2022-10-16T11:32:22;8.60;;;5.10;;
58661;SDS011;44432;49.786;22.760;2022-10-16T11:34:59;6.30;;;3.60;;
58661;SDS011;44432;49.786;22.760;2022-10-16T11:37:38;12.40;;;3.40;;
58661;SDS011;44432;49.786;22.760;2022-10-16T11:40:19;9.10;;;4.70;;
58661;SDS011;44432;49.786;22.760;2022-10-16T11:42:54;5.30;;;3.10;;
58661;SDS011;44432;49.786;22.760;2022-10-16T11:45:29;7.50;;;3.40;;
58661;SDS011;44432;49.786;22.760;2022-10-16T11:48:04;6.40;;;4.40;;
58661;SDS011;44432;49.786;22.760;2022-10-16T11:50:45;7.00;;;3.50;;
58661;SDS011;44432;49.786;22.760;2022-10-16T11:53:23;6.80;;;3.90;;
58661;SDS011;44432;49.786;22.760;2022-10-16T11:56:07;7.60;;;3.70;;
58661;SDS011;44432;49.786;22.760;2022-10-16T11:58:41;10.20;;;4.90;;
58661;SDS011;44432;49.786;22.760;2022-10-16T12:01:21;10.80;;;4.80;;
58661;SDS011;44432;49.786;22.760;2022-10-16T12:03:59;7.00;;;3.60;;
58661;SDS011;44432;49.786;22.760;2022-10-16T12:06:44;9.50;;;5.50;;
58661;SDS011;44432;49.786;22.760;2022-10-16T12:09:21;7.30;;;4.30;;
58661;SDS011;44432;49.786;22.760;2022-10-16T12:11:54;5.30;;;3.30;;
58661;SDS011;44432;49.786;22.760;2022-10-16T12:14:36;12.50;;;8.30;;
58661;SDS011;44432;49.786;22.760;2022-10-16T12:17:24;8.70;;;5.40;;
58661;SDS011;44432;49.786;22.760;2022-10-16T12:20:17;13.70;;;4.70;;
58661;SDS011;44432;49.786;22.760;2022-10-16T12:22:52;7.80;;;3.70;;
58661;SDS011;44432;49.786;22.760;2022-10-16T12:25:25;8.60;;;4.00;;
58661;SDS011;44432;49.786;22.760;2022-10-16T12:27:59;5.60;;;3.80;;
58661;SDS011;44432;49.786;22.760;2022-10-16T12:30:32;7.00;;;4.20;;
58661;SDS011;44432;49.786;22.760;2022-10-16T12:33:05;7.20;;;4.00;;
58661;SDS011;44432;49.786;22.760;2022-10-16T12:35:48;6.90;;;3.80;;
58661;SDS011;44432;49.786;22.760;2022-10-16T12:38:20;7.40;;;4.30;;
58661;SDS011;44432;49.786;22.760;2022-10-16T12:40:58;6.20;;;3.80;;
58661;SDS011;44432;49.786;22.760;2022-10-16T12:43:40;4.50;;;3.60;;
58661;SDS011;44432;49.786;22.760;2022-10-16T12:46:22;6.50;;;3.60;;
58661;SDS011;44432;49.786;22.760;2022-10-16T12:49:17;6.70;;;4.40;;
58661;SDS011;44432;49.786;22.760;2022-10-16T12:51:57;9.30;;;5.60;;
58661;SDS011;44432;49.786;22.760;2022-10-16T12:54:29;7.70;;;3.90;;
58661;SDS011;44432;49.786;22.760;2022-10-16T12:57:06;8.00;;;4.60;;
58661;SDS011;44432;49.786;22.760;2022-10-16T12:59:48;6.40;;;3.50;;
58661;SDS011;44432;49.786;22.760;2022-10-16T13:02:39;8.80;;;4.00;;
58661;SDS011;44432;49.786;22.760;2022-10-16T13:05:28;7.50;;;4.10;;
58661;SDS011;44432;49.786;22.760;2022-10-16T13:08:12;7.10;;;4.80;;
58661;SDS011;44432;49.786;22.760;2022-10-16T13:10:57;10.00;;;6.10;;
58661;SDS011;44432;49.786;22.760;2022-10-16T13:13:37;8.60;;;5.10;;
58661;SDS011;44432;49.786;22.760;2022-10-16T13:16:21;8.70;;;4.40;;
58661;SDS011;44432;49.786;22.760;2022-10-16T13:19:01;6.30;;;3.80;;
58661;SDS011;44432;49.786;22.760;2022-10-16T13:21:43;9.10;;;4.60;;
58661;SDS011;44432;49.786;22.760;2022-10-16T13:24:23;7.30;;;3.70;;
58661;SDS011;44432;49.786;22.760;2022-10-16T13:27:06;10.90;;;4.70;;
58661;SDS011;44432;49.786;22.760;2022-10-16T13:29:43;6.70;;;4.70;;
58661;SDS011;44432;49.786;22.760;2022-10-16T13:32:15;10.00;;;4.80;;
58661;SDS011;44432;49.786;22.760;2022-10-16T13:34:46;8.60;;;4.90;;
58661;SDS011;44432;49.786;22.760;2022-10-16T13:37:18;8.80;;;5.00;;
58661;SDS011;44432;49.786;22.760;2022-10-16T13:39:49;7.10;;;4.70;;
58661;SDS011;44432;49.786;22.760;2022-10-16T13:42:30;6.80;;;4.30;;
58661;SDS011;44432;49.786;22.760;2022-10-16T13:45:01;10.20;;;4.70;;
58661;SDS011;44432;49.786;22.760;2022-10-16T13:47:32;5.90;;;4.30;;
58661;SDS011;44432;49.786;22.760;2022-10-16T13:50:03;7.10;;;3.90;;
58661;SDS011;44432;49.786;22.760;2022-10-16T13:52:38;7.10;;;3.50;;
58661;SDS011;44432;49.786;22.760;2022-10-16T13:55:11;7.10;;;3.70;;
58661;SDS011;44432;49.786;22.760;2022-10-16T13:57:43;7.10;;;3.70;;
58661;SDS011;44432;49.786;22.760;2022-10-16T14:00:21;8.20;;;4.30;;
58661;SDS011;44432;49.786;22.760;2022-10-16T14:02:58;6.50;;;3.60;;
58661;SDS011;44432;49.786;22.760;2022-10-16T14:05:32;10.60;;;3.40;;
58661;SDS011;44432;49.786;22.760;2022-10-16T14:08:03;7.60;;;3.70;;
58661;SDS011;44432;49.786;22.760;2022-10-16T14:10:34;7.60;;;3.90;;
58661;SDS011;44432;49.786;22.760;2022-10-16T14:13:05;6.60;;;4.50;;
58661;SDS011;44432;49.786;22.760;2022-10-16T14:15:45;6.30;;;3.70;;
58661;SDS011;44432;49.786;22.760;2022-10-16T14:18:19;6.30;;;3.80;;
58661;SDS011;44432;49.786;22.760;2022-10-16T14:20:51;5.10;;;3.60;;
58661;SDS011;44432;49.786;22.760;2022-10-16T14:23:23;5.70;;;3.60;;
58661;SDS011;44432;49.786;22.760;2022-10-16T14:26:06;4.50;;;3.10;;
58661;SDS011;44432;49.786;22.760;2022-10-16T14:28:43;9.70;;;3.80;;
58661;SDS011;44432;49.786;22.760;2022-10-16T14:31:25;9.80;;;5.20;;
58661;SDS011;44432;49.786;22.760;2022-10-16T14:33:57;4.90;;;3.30;;
58661;SDS011;44432;49.786;22.760;2022-10-16T14:36:28;6.30;;;3.70;;
58661;SDS011;44432;49.786;22.760;2022-10-16T14:39:01;6.70;;;3.60;;
58661;SDS011;44432;49.786;22.760;2022-10-16T14:41:35;5.00;;;3.60;;
58661;SDS011;44432;49.786;22.760;2022-10-16T14:44:14;8.90;;;4.60;;
58661;SDS011;44432;49.786;22.760;2022-10-16T14:46:45;11.40;;;4.80;;
58661;SDS011;44432;49.786;22.760;2022-10-16T14:49:17;7.20;;;4.10;;
58661;SDS011;44432;49.786;22.760;2022-10-16T14:54:19;5.60;;;4.10;;
58661;SDS011;44432;49.786;22.760;2022-10-16T14:56:51;11.10;;;4.90;;
58661;SDS011;44432;49.786;22.760;2022-10-16T15:01:54;8.90;;;4.80;;
58661;SDS011;44432;49.786;22.760;2022-10-16T15:04:24;7.90;;;4.40;;
58661;SDS011;44432;49.786;22.760;2022-10-16T15:06:55;8.40;;;3.90;;
58661;SDS011;44432;49.786;22.760;2022-10-16T15:09:25;6.70;;;3.70;;
58661;SDS011;44432;49.786;22.760;2022-10-16T15:11:56;8.30;;;4.10;;